createdAt,value
2022-11-21T00:02:38.109Z,4
2022-11-21T00:12:38.098Z,4.01
2022-11-21T00:22:38.124Z,4.04
2022-11-21T00:32:38.131Z,4.11
2022-11-21T00:42:38.117Z,4.05
2022-11-21T00:52:38.126Z,3.85
2022-11-21T01:02:38.125Z,3.42
2022-11-21T01:12:38.154Z,3.37
2022-11-21T01:22:38.112Z,3.29
2022-11-21T01:32:38.162Z,3.13
2022-11-21T01:42:38.127Z,3.02
2022-11-21T01:52:38.167Z,2.92
2022-11-21T02:02:38.121Z,2.96
2022-11-21T02:12:38.120Z,2.95
2022-11-21T02:22:38.131Z,2.96
2022-11-21T02:32:38.194Z,2.93
2022-11-21T02:42:38.153Z,2.77
2022-11-21T02:52:38.210Z,2.69
2022-11-21T03:02:38.165Z,2.69
2022-11-21T03:12:38.186Z,2.49
2022-11-21T03:22:38.170Z,2.35
2022-11-21T03:32:38.179Z,2.23
2022-11-21T03:42:38.119Z,2.11
2022-11-21T03:52:38.207Z,2.15
2022-11-21T04:02:38.166Z,2.14
2022-11-21T04:12:38.211Z,2.12
2022-11-21T04:22:38.173Z,2.08
2022-11-21T04:32:38.315Z,2.05
2022-11-21T04:42:38.173Z,2.15
2022-11-21T04:52:38.223Z,2.29
2022-11-21T05:02:38.197Z,2.43
2022-11-21T05:12:38.204Z,2.47
2022-11-21T05:22:38.199Z,2.47
2022-11-21T05:32:38.209Z,2.59
2022-11-21T05:42:38.218Z,2.57
2022-11-21T05:52:38.266Z,2.5
2022-11-21T06:02:38.264Z,2.44
2022-11-21T06:12:38.237Z,2.22
2022-11-21T06:22:38.217Z,1.98
2022-11-21T06:32:38.360Z,1.74
2022-11-21T06:42:38.217Z,1.71
2022-11-21T06:52:38.243Z,1.53
2022-11-21T07:02:38.238Z,1.42
2022-11-21T07:12:38.251Z,1.26
2022-11-21T07:22:38.239Z,1.11
2022-11-21T07:32:38.255Z,1.63
2022-11-21T07:42:38.258Z,1.81
2022-11-21T07:52:38.259Z,2.52
2022-11-21T08:02:38.258Z,2.96
2022-11-21T08:12:38.337Z,3.39
2022-11-21T08:22:38.266Z,3.96
2022-11-21T08:32:38.264Z,4.45
2022-11-21T08:42:38.263Z,4.85
2022-11-21T08:52:38.274Z,5.31
2022-11-21T09:02:38.282Z,5.64
2022-11-21T09:12:38.274Z,6.12
2022-11-21T09:22:38.276Z,6.72
2022-11-21T09:32:38.274Z,7.52
2022-11-21T09:42:38.221Z,7.83
2022-11-21T09:52:38.292Z,7.8
2022-11-21T10:02:38.247Z,8.66
2022-11-21T10:12:38.772Z,8.92
2022-11-21T10:22:38.220Z,9.06
2022-11-21T10:32:38.255Z,8.98
2022-11-21T10:42:38.218Z,9.98
2022-11-21T10:52:38.242Z,9.58
2022-11-21T11:02:38.222Z,10.77
2022-11-21T11:12:38.222Z,9.17
2022-11-21T11:22:38.205Z,8.13
2022-11-21T11:32:38.226Z,7.71
2022-11-21T11:42:38.211Z,7.74
2022-11-21T11:52:38.229Z,7.9
2022-11-21T12:02:38.218Z,7.79
2022-11-21T12:12:38.240Z,7.74
2022-11-21T12:22:38.199Z,7.92
2022-11-21T12:32:38.327Z,8.03
2022-11-21T12:42:38.188Z,7.92
2022-11-21T12:52:38.198Z,8.19
2022-11-21T13:02:38.199Z,8.22
2022-11-21T13:12:38.214Z,8.15
2022-11-21T13:22:38.184Z,8.25
2022-11-21T13:32:38.217Z,8.22
2022-11-21T13:42:38.197Z,8.23
2022-11-21T13:52:38.195Z,8.44
2022-11-21T14:02:38.181Z,8.37
2022-11-21T14:12:41.195Z,8.24
2022-11-21T14:22:42.451Z,8.07
2022-11-21T14:32:38.286Z,7.81
2022-11-21T14:42:38.164Z,7.47
2022-11-21T14:52:38.177Z,7.12
2022-11-21T15:02:38.181Z,6.62
2022-11-21T15:12:41.528Z,6.12
2022-11-21T15:22:38.141Z,5.44
2022-11-21T15:32:38.160Z,4.87
2022-11-21T15:42:38.154Z,4.71
2022-11-21T15:52:38.211Z,4.13
2022-11-21T16:02:38.175Z,3.68
2022-11-21T16:12:38.213Z,3.41
2022-11-21T16:22:41.521Z,3.26
2022-11-21T16:32:38.194Z,3.03
2022-11-21T16:42:38.196Z,2.61
2022-11-21T16:52:38.220Z,2.37
2022-11-21T17:02:38.257Z,2.19
2022-11-21T17:12:38.253Z,1.91
2022-11-21T17:22:38.235Z,1.58
2022-11-21T17:32:38.256Z,1.51
2022-11-21T17:42:38.231Z,1.5
2022-11-21T17:52:38.244Z,1.26
2022-11-21T18:02:38.402Z,1.24
2022-11-21T18:12:38.224Z,1.22
2022-11-21T18:22:38.243Z,1.13
2022-11-21T18:32:38.269Z,1.05
2022-11-21T18:42:38.226Z,0.86
2022-11-21T18:52:42.207Z,0.76
2022-11-21T19:02:38.240Z,0.7
2022-11-21T19:12:39.773Z,0.69
2022-11-21T19:22:38.246Z,0.7
2022-11-21T19:32:38.264Z,0.53
2022-11-21T19:42:38.263Z,0.29
2022-11-21T19:52:38.296Z,0.28
2022-11-21T20:02:38.268Z,0.21
2022-11-21T20:12:38.305Z,0.09
2022-11-21T20:22:38.278Z,0
2022-11-21T20:32:38.342Z,-0.02
2022-11-21T20:42:38.302Z,-0.11
2022-11-21T21:02:38.327Z,-0.22
2022-11-21T21:12:38.347Z,-0.26
2022-11-21T21:22:38.314Z,-0.29
2022-11-21T21:32:38.373Z,-0.33
2022-11-21T21:42:38.310Z,-0.37
2022-11-21T21:52:38.397Z,-0.36
2022-11-21T22:12:42.652Z,-0.44
2022-11-21T22:22:38.362Z,-0.33
2022-11-21T22:32:38.423Z,-0.35
2022-11-21T22:42:38.361Z,-0.33
2022-11-21T22:52:38.476Z,-0.29
2022-11-21T23:02:38.392Z,-0.31
2022-11-21T23:12:38.403Z,-0.35
2022-11-21T23:22:38.407Z,-0.18
2022-11-21T23:32:38.423Z,-0.28
2022-11-21T23:42:38.412Z,-0.23
2022-11-21T23:52:38.455Z,-0.2
